Time;durP1;ratioP1;P1;durP2;ratioP2;P2;SDS_P1;SDS_P2;PMS_P1;PMS_P2;Temp;Humidity;BMP_temperature;BMP_pressure;BME280_temperature;BME280_humidity;BME280_pressure;Samples;Min_cycle;Max_cycle;Signal;HPM_P1;HPM_P2
2021/09/15 00:02:22;;;;;;;21.27;15.00;;;;;;;;;;5006206;28;20400;-68
2021/09/15 00:04:48;;;;;;;24.95;14.65;;;;;;;;;;5005400;28;20058;-68
2021/09/15 00:07:14;;;;;;;23.60;17.02;;;;;;;;;;5006898;28;20106;-67
2021/09/15 00:09:40;;;;;;;22.67;15.75;;;;;;;;;;5007152;28;20030;-67
2021/09/15 00:12:07;;;;;;;24.52;16.17;;;;;;;;;;5006636;28;20029;-71
2021/09/15 00:14:33;;;;;;;23.73;16.27;;;;;;;;;;5006370;28;20022;-68
2021/09/15 00:16:59;;;;;;;24.80;16.80;;;;;;;;;;5006536;28;20029;-67
2021/09/15 00:19:25;;;;;;;24.92;15.70;;;;;;;;;;5006553;28;20030;-68
2021/09/15 00:21:51;;;;;;;27.25;17.50;;;;;;;;;;5006601;28;20018;-67
2021/09/15 00:24:17;;;;;;;28.65;17.17;;;;;;;;;;5006537;28;20046;-68
2021/09/15 00:26:43;;;;;;;25.80;16.75;;;;;;;;;;5006397;28;20086;-68
2021/09/15 00:29:09;;;;;;;24.60;15.48;;;;;;;;;;5006490;28;20022;-69
2021/09/15 00:31:36;;;;;;;24.48;16.67;;;;;;;;;;5006375;28;20034;-68
2021/09/15 00:34:02;;;;;;;24.10;16.05;;;;;;;;;;5006623;28;20034;-67
2021/09/15 00:36:28;;;;;;;24.55;15.57;;;;;;;;;;5006320;28;20105;-68
2021/09/15 00:38:54;;;;;;;25.67;16.50;;;;;;;;;;5006514;28;20034;-70
2021/09/15 00:41:20;;;;;;;24.70;15.18;;;;;;;;;;5006655;28;20022;-67
2021/09/15 00:44:03;;;;;;;23.83;16.75;;;;;;;;;;5006504;28;20053;-67
2021/09/15 00:46:29;;;;;;;25.63;16.45;;;;;;;;;;5006811;28;20056;-67
2021/09/15 00:48:55;;;;;;;25.27;15.98;;;;;;;;;;5006733;28;20030;-68
2021/09/15 00:51:22;;;;;;;24.90;15.88;;;;;;;;;;5006647;28;20030;-68
2021/09/15 00:53:48;;;;;;;26.25;16.48;;;;;;;;;;5006606;28;20030;-68
2021/09/15 00:56:14;;;;;;;29.65;15.82;;;;;;;;;;5006492;28;20041;-68
2021/09/15 00:58:40;;;;;;;25.05;15.80;;;;;;;;;;5008773;28;20046;-67
2021/09/15 01:01:06;;;;;;;24.35;15.43;;;;;;;;;;5010253;28;20054;-68
2021/09/15 01:03:32;;;;;;;26.23;16.90;;;;;;;;;;5009921;28;20018;-67
2021/09/15 01:05:58;;;;;;;23.83;15.23;;;;;;;;;;5009956;28;20042;-66
2021/09/15 01:08:28;;;;;;;30.75;16.20;;;;;;;;;;5009796;28;20038;-68
2021/09/15 01:10:55;;;;;;;25.63;16.52;;;;;;;;;;5009877;28;20034;-68
2021/09/15 01:13:21;;;;;;;27.35;15.52;;;;;;;;;;5010012;28;20081;-69
2021/09/15 01:15:47;;;;;;;25.48;15.55;;;;;;;;;;5009630;28;20050;-67
2021/09/15 01:18:17;;;;;;;25.27;16.05;;;;;;;;;;5009677;28;20097;-67
2021/09/15 01:20:43;;;;;;;24.40;14.68;;;;;;;;;;5008437;28;20068;-71
2021/09/15 01:23:09;;;;;;;26.95;16.02;;;;;;;;;;5008896;28;20094;-68
2021/09/15 01:25:35;;;;;;;25.48;17.02;;;;;;;;;;5009571;28;20118;-66
2021/09/15 01:28:01;;;;;;;23.17;15.10;;;;;;;;;;5009402;28;20027;-69
2021/09/15 01:30:27;;;;;;;23.75;15.20;;;;;;;;;;5009583;28;20050;-68
2021/09/15 01:32:53;;;;;;;24.98;15.25;;;;;;;;;;5009387;28;20065;-68
2021/09/15 01:35:20;;;;;;;26.55;15.82;;;;;;;;;;5009123;28;20026;-68
2021/09/15 01:37:46;;;;;;;24.73;16.20;;;;;;;;;;5009091;28;20032;-68
2021/09/15 01:40:13;;;;;;;23.98;15.55;;;;;;;;;;5008909;28;20031;-68
2021/09/15 01:42:39;;;;;;;22.90;14.98;;;;;;;;;;5008889;28;20075;-68
2021/09/15 01:45:07;;;;;;;27.48;15.15;;;;;;;;;;5009254;28;20050;-68
2021/09/15 01:47:33;;;;;;;22.30;15.23;;;;;;;;;;5008980;28;20062;-67
2021/09/15 01:49:59;;;;;;;22.52;14.98;;;;;;;;;;5009153;28;20065;-67
2021/09/15 01:52:25;;;;;;;23.88;15.25;;;;;;;;;;5009035;28;20026;-67
2021/09/15 01:54:51;;;;;;;23.58;14.77;;;;;;;;;;5009323;28;20445;-69
2021/09/15 01:57:17;;;;;;;26.00;16.00;;;;;;;;;;5008379;28;20049;-67
2021/09/15 01:59:44;;;;;;;22.05;14.48;;;;;;;;;;5008970;28;20026;-68
2021/09/15 02:02:13;;;;;;;28.08;15.43;;;;;;;;;;5007989;28;20075;-68
2021/09/15 02:04:40;;;;;;;25.88;15.32;;;;;;;;;;5008838;28;20053;-71
2021/09/15 02:07:06;;;;;;;22.88;15.27;;;;;;;;;;5008898;28;20026;-69
2021/09/15 02:09:32;;;;;;;24.13;15.50;;;;;;;;;;5008384;28;20057;-68
2021/09/15 02:11:58;;;;;;;25.67;15.57;;;;;;;;;;5008889;28;20041;-70
2021/09/15 02:14:24;;;;;;;25.05;15.27;;;;;;;;;;5008536;28;20022;-67
2021/09/15 02:16:51;;;;;;;23.05;15.00;;;;;;;;;;5008516;28;20104;-68
2021/09/15 02:19:17;;;;;;;22.27;13.95;;;;;;;;;;5008277;28;20027;-69
2021/09/15 02:21:43;;;;;;;20.33;13.82;;;;;;;;;;5008163;28;20030;-69
2021/09/15 02:24:09;;;;;;;21.63;14.10;;;;;;;;;;5008336;28;20033;-70
2021/09/15 02:26:36;;;;;;;18.63;12.80;;;;;;;;;;5008548;28;20026;-68
2021/09/15 02:29:02;;;;;;;22.20;14.85;;;;;;;;;;5008363;28;20026;-68
2021/09/15 02:31:29;;;;;;;22.00;13.93;;;;;;;;;;5008100;28;20022;-70
2021/09/15 02:33:55;;;;;;;19.90;12.70;;;;;;;;;;5007781;28;20030;-67
2021/09/15 02:36:21;;;;;;;22.63;13.73;;;;;;;;;;5007951;28;20030;-67
2021/09/15 02:38:47;;;;;;;20.80;13.70;;;;;;;;;;5007815;28;20053;-70
2021/09/15 02:41:13;;;;;;;22.38;13.82;;;;;;;;;;5007949;28;20396;-67
2021/09/15 02:43:39;;;;;;;18.30;12.88;;;;;;;;;;5008257;28;20022;-70
2021/09/15 02:46:05;;;;;;;20.30;12.50;;;;;;;;;;5008010;28;20050;-67
2021/09/15 02:48:31;;;;;;;17.85;12.77;;;;;;;;;;5008253;28;20488;-68
2021/09/15 02:50:57;;;;;;;19.77;13.07;;;;;;;;;;5007849;28;20022;-68
2021/09/15 02:53:24;;;;;;;18.70;12.05;;;;;;;;;;5007754;28;20082;-69
2021/09/15 02:55:50;;;;;;;20.00;14.15;;;;;;;;;;5007757;28;20030;-71
2021/09/15 02:58:16;;;;;;;20.20;12.13;;;;;;;;;;5007450;28;20042;-71
2021/09/15 03:00:42;;;;;;;18.25;12.95;;;;;;;;;;5007923;28;20385;-68
2021/09/15 03:03:08;;;;;;;18.63;12.38;;;;;;;;;;5007719;28;20026;-68
2021/09/15 03:05:34;;;;;;;22.13;12.60;;;;;;;;;;5007790;28;20657;-68
2021/09/15 03:08:00;;;;;;;20.02;13.45;;;;;;;;;;5007643;28;20050;-67
2021/09/15 03:10:29;;;;;;;20.30;13.73;;;;;;;;;;5007885;28;20511;-68
2021/09/15 03:12:56;;;;;;;21.85;13.43;;;;;;;;;;5006394;28;20118;-70
2021/09/15 03:15:22;;;;;;;22.35;14.23;;;;;;;;;;5007126;28;20026;-67
2021/09/15 03:17:48;;;;;;;18.58;12.98;;;;;;;;;;5007647;28;20066;-67
2021/09/15 03:20:14;;;;;;;19.35;11.35;;;;;;;;;;5006598;28;20030;-68
2021/09/15 03:22:40;;;;;;;19.60;13.38;;;;;;;;;;5007297;28;20025;-68
2021/09/15 03:25:08;;;;;;;24.00;13.68;;;;;;;;;;5007482;28;20358;-68
2021/09/15 03:27:34;;;;;;;18.17;12.73;;;;;;;;;;5007362;28;20029;-68
2021/09/15 03:30:00;;;;;;;21.83;13.23;;;;;;;;;;5007163;28;20022;-68
2021/09/15 03:32:32;;;;;;;18.63;13.52;;;;;;;;;;5007411;28;20101;-67
2021/09/15 03:34:58;;;;;;;19.08;13.27;;;;;;;;;;5007227;28;20030;-68
2021/09/15 03:37:24;;;;;;;21.90;12.65;;;;;;;;;;5007145;28;20182;-67
2021/09/15 03:39:50;;;;;;;21.67;13.38;;;;;;;;;;5006828;28;20046;-71
2021/09/15 03:42:16;;;;;;;23.42;13.45;;;;;;;;;;5007405;28;20049;-68
2021/09/15 03:44:42;;;;;;;20.27;11.88;;;;;;;;;;5006780;28;20048;-69
2021/09/15 03:47:09;;;;;;;17.55;12.52;;;;;;;;;;5006893;28;20061;-67
2021/09/15 03:49:35;;;;;;;20.85;12.82;;;;;;;;;;5006827;28;20033;-68
2021/09/15 03:52:01;;;;;;;17.85;12.55;;;;;;;;;;5006847;28;20484;-68
2021/09/15 03:54:27;;;;;;;18.55;12.32;;;;;;;;;;5006580;28;20030;-67
2021/09/15 03:56:53;;;;;;;21.17;13.30;;;;;;;;;;5006703;28;20046;-68
2021/09/15 03:59:19;;;;;;;20.95;12.18;;;;;;;;;;5006709;28;20038;-70
2021/09/15 04:01:45;;;;;;;20.60;13.45;;;;;;;;;;5006734;28;20113;-71
2021/09/15 04:04:11;;;;;;;18.00;12.75;;;;;;;;;;5005642;28;20094;-67
2021/09/15 04:06:37;;;;;;;20.23;13.30;;;;;;;;;;5006468;28;20023;-68
2021/09/15 04:09:03;;;;;;;22.75;13.48;;;;;;;;;;5006669;28;20027;-72
2021/09/15 04:11:30;;;;;;;23.00;12.70;;;;;;;;;;5006791;28;20053;-67
2021/09/15 04:13:56;;;;;;;22.13;14.73;;;;;;;;;;5006389;28;20026;-68
2021/09/15 04:16:22;;;;;;;20.17;12.82;;;;;;;;;;5005766;28;20027;-67
2021/09/15 04:18:54;;;;;;;20.55;13.05;;;;;;;;;;5005492;28;20437;-68
2021/09/15 04:21:20;;;;;;;21.17;14.07;;;;;;;;;;5005627;28;20105;-66
2021/09/15 04:24:20;;;;;;;19.73;12.90;;;;;;;;;;5004373;28;20444;-67
2021/09/15 04:32:16;;;;;;;23.42;12.50;;;;;;;;;;5007181;28;20045;-68
2021/09/15 04:34:42;;;;;;;23.10;13.75;;;;;;;;;;5008643;28;20038;-67
2021/09/15 04:37:08;;;;;;;19.55;12.75;;;;;;;;;;5007322;28;20094;-70
2021/09/15 04:39:34;;;;;;;20.10;12.63;;;;;;;;;;5009078;28;20042;-71
2021/09/15 04:42:00;;;;;;;18.98;13.05;;;;;;;;;;5008913;28;20022;-68
2021/09/15 04:44:26;;;;;;;20.42;12.32;;;;;;;;;;5009851;28;20022;-67
2021/09/15 04:46:52;;;;;;;22.30;14.43;;;;;;;;;;5008939;28;20026;-76
2021/09/15 04:49:21;;;;;;;20.67;14.15;;;;;;;;;;5008548;28;20046;-68
2021/09/15 04:51:47;;;;;;;20.45;13.10;;;;;;;;;;5009952;28;20483;-69
2021/09/15 04:54:13;;;;;;;19.92;13.32;;;;;;;;;;5010063;28;20076;-69
2021/09/15 04:56:39;;;;;;;21.42;13.90;;;;;;;;;;5009980;28;20082;-68
2021/09/15 04:59:05;;;;;;;19.83;13.70;;;;;;;;;;5009631;28;20081;-70
2021/09/15 05:01:31;;;;;;;19.90;12.18;;;;;;;;;;5009946;28;20440;-72
2021/09/15 05:03:57;;;;;;;23.27;12.82;;;;;;;;;;5009895;28;20030;-68
2021/09/15 05:06:23;;;;;;;19.48;12.70;;;;;;;;;;5007298;28;20030;-68
2021/09/15 05:08:49;;;;;;;21.00;12.63;;;;;;;;;;5009640;28;20046;-70
2021/09/15 05:11:19;;;;;;;21.67;14.18;;;;;;;;;;5009814;28;20031;-69
2021/09/15 05:13:45;;;;;;;21.02;12.25;;;;;;;;;;5009512;28;20056;-69
2021/09/15 05:16:11;;;;;;;19.88;13.98;;;;;;;;;;5009909;28;20027;-68
2021/09/15 05:18:37;;;;;;;18.52;12.73;;;;;;;;;;5009618;28;20108;-67
2021/09/15 05:21:03;;;;;;;17.17;12.25;;;;;;;;;;5009560;28;20023;-68
2021/09/15 05:23:29;;;;;;;21.15;13.50;;;;;;;;;;5010068;28;20029;-69
2021/09/15 05:25:59;;;;;;;16.55;11.43;;;;;;;;;;5009854;28;20073;-70
2021/09/15 05:28:25;;;;;;;21.75;13.25;;;;;;;;;;5007952;28;20030;-69
2021/09/15 05:30:51;;;;;;;19.88;12.88;;;;;;;;;;5008892;28;20076;-73
2021/09/15 05:33:17;;;;;;;18.48;12.40;;;;;;;;;;5009551;28;20022;-67
2021/09/15 05:35:43;;;;;;;21.15;13.77;;;;;;;;;;5008340;28;20023;-71
2021/09/15 05:38:09;;;;;;;21.98;13.45;;;;;;;;;;5008286;28;20027;-68
2021/09/15 05:40:36;;;;;;;19.92;13.70;;;;;;;;;;5007726;28;20026;-69
2021/09/15 05:43:02;;;;;;;18.67;12.93;;;;;;;;;;5006409;28;20023;-68
2021/09/15 05:45:28;;;;;;;19.63;13.30;;;;;;;;;;5006017;28;20049;-72
2021/09/15 05:47:54;;;;;;;27.27;13.23;;;;;;;;;;5005591;28;20110;-67
2021/09/15 05:50:20;;;;;;;20.63;13.00;;;;;;;;;;5009387;28;20022;-67
2021/09/15 05:52:46;;;;;;;21.65;14.95;;;;;;;;;;5009243;28;20030;-68
2021/09/15 05:55:12;;;;;;;20.70;13.13;;;;;;;;;;5008636;28;20034;-74
2021/09/15 05:57:39;;;;;;;21.88;14.50;;;;;;;;;;5003005;28;20389;-71
2021/09/15 06:00:06;;;;;;;19.83;12.98;;;;;;;;;;5005773;28;20022;-74
2021/09/15 06:02:32;;;;;;;24.58;14.20;;;;;;;;;;5005878;28;20033;-68
2021/09/15 06:04:58;;;;;;;22.35;13.50;;;;;;;;;;5005806;28;20026;-68
2021/09/15 06:07:24;;;;;;;18.77;12.68;;;;;;;;;;5005257;28;20090;-68
2021/09/15 06:09:50;;;;;;;19.45;13.07;;;;;;;;;;5007482;28;20142;-72
2021/09/15 06:12:16;;;;;;;23.00;14.38;;;;;;;;;;5005993;28;20019;-67
2021/09/15 06:14:42;;;;;;;19.63;13.32;;;;;;;;;;5004523;28;20029;-73
2021/09/15 06:17:08;;;;;;;20.23;12.75;;;;;;;;;;5018909;28;20026;-73
2021/09/15 06:19:34;;;;;;;23.05;13.93;;;;;;;;;;5022148;28;20034;-70
2021/09/15 06:22:00;;;;;;;21.10;12.55;;;;;;;;;;5021998;28;20061;-73
2021/09/15 06:24:26;;;;;;;19.45;12.73;;;;;;;;;;5025109;28;20073;-70
2021/09/15 06:26:52;;;;;;;21.10;13.48;;;;;;;;;;5021760;28;20400;-71
2021/09/15 06:29:19;;;;;;;21.45;12.85;;;;;;;;;;5024749;28;20026;-68
2021/09/15 06:31:45;;;;;;;19.00;12.32;;;;;;;;;;5023161;28;20427;-69
2021/09/15 06:34:11;;;;;;;20.65;12.75;;;;;;;;;;5021183;28;20057;-74
2021/09/15 06:36:39;;;;;;;23.15;14.18;;;;;;;;;;5023102;28;20022;-73
2021/09/15 06:39:06;;;;;;;18.17;12.48;;;;;;;;;;5020179;28;20058;-72
2021/09/15 06:41:32;;;;;;;16.80;11.77;;;;;;;;;;5021494;28;20029;-72
2021/09/15 06:43:58;;;;;;;17.55;11.88;;;;;;;;;;5023432;28;20030;-74
2021/09/15 06:46:24;;;;;;;19.40;12.25;;;;;;;;;;5022269;28;20022;-73
2021/09/15 06:48:51;;;;;;;19.98;12.63;;;;;;;;;;5020894;28;20104;-71
2021/09/15 06:51:17;;;;;;;19.85;12.73;;;;;;;;;;5023141;28;20057;-69
2021/09/15 06:53:43;;;;;;;23.67;13.38;;;;;;;;;;5025141;28;20094;-68
2021/09/15 06:56:10;;;;;;;20.95;13.85;;;;;;;;;;5020266;28;20152;-72
2021/09/15 06:58:36;;;;;;;20.65;12.43;;;;;;;;;;5020787;28;20042;-74
2021/09/15 07:01:02;;;;;;;18.77;12.38;;;;;;;;;;5022905;28;20026;-65
2021/09/15 07:03:28;;;;;;;24.45;14.40;;;;;;;;;;5020633;28;20026;-68
2021/09/15 07:05:54;;;;;;;19.80;13.07;;;;;;;;;;5019670;28;20405;-75
2021/09/15 07:08:20;;;;;;;24.67;14.05;;;;;;;;;;5020165;28;20383;-73
2021/09/15 07:10:47;;;;;;;21.83;12.90;;;;;;;;;;5018466;28;20109;-72
2021/09/15 07:13:13;;;;;;;23.35;13.63;;;;;;;;;;5017695;28;20493;-74
2021/09/15 07:15:39;;;;;;;23.80;15.32;;;;;;;;;;5013824;28;20076;-73
2021/09/15 07:18:06;;;;;;;23.02;14.20;;;;;;;;;;4997507;28;20038;-70
2021/09/15 07:20:33;;;;;;;23.35;14.52;;;;;;;;;;4996979;28;20389;-76
2021/09/15 07:22:59;;;;;;;21.95;14.00;;;;;;;;;;4998858;28;20023;-73
2021/09/15 07:25:25;;;;;;;23.40;13.95;;;;;;;;;;4998685;28;20397;-75
2021/09/15 07:27:51;;;;;;;24.45;15.65;;;;;;;;;;4999995;28;20040;-75
2021/09/15 07:30:17;;;;;;;25.25;15.52;;;;;;;;;;4999483;28;20447;-75
2021/09/15 07:32:46;;;;;;;30.88;14.85;;;;;;;;;;5002145;28;20034;-71
2021/09/15 07:35:13;;;;;;;27.88;14.75;;;;;;;;;;4998704;28;20030;-73
2021/09/15 07:37:39;;;;;;;22.38;14.05;;;;;;;;;;4999518;28;20033;-75
2021/09/15 07:40:06;;;;;;;27.75;15.30;;;;;;;;;;4999973;28;20031;-68
2021/09/15 07:42:32;;;;;;;23.42;13.30;;;;;;;;;;4999539;28;20026;-72
2021/09/15 07:44:59;;;;;;;24.50;14.63;;;;;;;;;;4998817;28;20037;-71
2021/09/15 07:47:25;;;;;;;23.63;13.77;;;;;;;;;;4998431;28;20105;-72
2021/09/15 07:49:51;;;;;;;28.65;14.18;;;;;;;;;;5000153;28;20027;-71
2021/09/15 07:52:17;;;;;;;21.80;13.82;;;;;;;;;;4998767;28;20046;-72
2021/09/15 07:54:43;;;;;;;25.73;14.13;;;;;;;;;;4998595;28;20034;-74
2021/09/15 07:57:09;;;;;;;27.05;15.73;;;;;;;;;;4997666;28;20035;-72
2021/09/15 07:59:35;;;;;;;28.05;14.75;;;;;;;;;;4996102;28;20493;-73
2021/09/15 08:02:01;;;;;;;19.65;13.05;;;;;;;;;;5000825;28;20053;-65
2021/09/15 08:04:28;;;;;;;23.63;14.45;;;;;;;;;;5004640;28;20060;-67
2021/09/15 08:06:54;;;;;;;17.20;12.27;;;;;;;;;;5004177;28;20022;-67
2021/09/15 08:09:20;;;;;;;25.33;14.00;;;;;;;;;;5003728;28;20086;-66
2021/09/15 08:11:46;;;;;;;26.38;14.43;;;;;;;;;;5001427;28;20033;-74
2021/09/15 08:14:18;;;;;;;24.75;14.95;;;;;;;;;;5002625;28;20054;-68
2021/09/15 08:16:45;;;;;;;25.67;12.77;;;;;;;;;;5002759;28;20057;-74
2021/09/15 08:19:11;;;;;;;22.40;12.35;;;;;;;;;;5020377;28;20032;-69
2021/09/15 08:21:37;;;;;;;27.45;13.43;;;;;;;;;;5019648;28;20076;-70
2021/09/15 08:24:03;;;;;;;26.13;13.68;;;;;;;;;;5021178;28;20073;-71
2021/09/15 08:26:30;;;;;;;27.52;15.15;;;;;;;;;;5019940;28;20086;-72
2021/09/15 08:28:56;;;;;;;25.73;14.90;;;;;;;;;;5012499;28;20022;-71
2021/09/15 08:31:22;;;;;;;31.75;14.55;;;;;;;;;;5000546;28;20038;-68
2021/09/15 08:33:48;;;;;;;25.27;13.57;;;;;;;;;;5003370;28;20030;-66
2021/09/15 08:36:14;;;;;;;22.48;13.10;;;;;;;;;;5003426;28;20023;-73
2021/09/15 08:38:40;;;;;;;25.63;12.80;;;;;;;;;;5011587;28;20029;-69
2021/09/15 08:41:07;;;;;;;21.83;11.88;;;;;;;;;;5024345;28;20053;-67
2021/09/15 08:43:36;;;;;;;18.13;11.02;;;;;;;;;;5024477;28;20022;-71
2021/09/15 08:46:05;;;;;;;17.30;11.18;;;;;;;;;;5024669;28;20030;-68
2021/09/15 08:48:34;;;;;;;16.10;11.20;;;;;;;;;;5020520;28;20026;-67
2021/09/15 08:51:01;;;;;;;16.95;10.98;;;;;;;;;;5004979;28;20031;-70
2021/09/15 08:53:28;;;;;;;15.23;9.52;;;;;;;;;;5005704;28;20031;-66
2021/09/15 08:55:54;;;;;;;17.50;9.63;;;;;;;;;;5005548;28;20030;-72
2021/09/15 08:58:20;;;;;;;14.07;9.50;;;;;;;;;;5003825;28;20046;-70
2021/09/15 09:00:47;;;;;;;15.45;9.20;;;;;;;;;;5004436;28;20034;-67
2021/09/15 09:03:13;;;;;;;13.35;8.38;;;;;;;;;;5005504;28;20030;-66
2021/09/15 09:05:39;;;;;;;11.60;8.23;;;;;;;;;;5004685;28;20026;-69
2021/09/15 09:08:24;;;;;;;11.07;7.95;;;;;;;;;;5005297;28;20070;-66
2021/09/15 09:10:52;;;;;;;13.63;7.67;;;;;;;;;;5006669;28;20026;-70
2021/09/15 09:13:19;;;;;;;10.13;7.35;;;;;;;;;;5006558;28;20050;-65
2021/09/15 09:15:45;;;;;;;12.07;7.78;;;;;;;;;;5004958;28;20044;-69
2021/09/15 09:18:11;;;;;;;15.35;8.15;;;;;;;;;;5009603;28;20034;-66
2021/09/15 09:20:37;;;;;;;14.88;9.02;;;;;;;;;;5013929;28;20022;-70
2021/09/15 09:23:10;;;;;;;12.07;8.30;;;;;;;;;;5020144;28;20018;-70
2021/09/15 09:25:43;;;;;;;12.88;8.55;;;;;;;;;;5025088;28;20044;-69
2021/09/15 09:28:19;;;;;;;14.18;8.18;;;;;;;;;;5006615;28;20027;-70
2021/09/15 09:30:45;;;;;;;;;;;;;;;;;;5008970;28;20030;-66
2021/09/15 09:33:11;;;;;;;13.35;8.73;;;;;;;;;;5009429;28;19913;-66
2021/09/15 09:35:41;;;;;;;12.32;7.78;;;;;;;;;;5009394;28;20026;-67
2021/09/15 09:38:17;;;;;;;15.95;9.63;;;;;;;;;;5008844;28;20074;-66
2021/09/15 09:40:57;;;;;;;19.52;10.05;;;;;;;;;;5008663;28;20030;-66
2021/09/15 09:43:24;;;;;;;15.35;9.20;;;;;;;;;;5008659;28;20029;-66
2021/09/15 09:45:50;;;;;;;15.95;10.77;;;;;;;;;;5008737;28;20086;-68
2021/09/15 09:48:33;;;;;;;14.05;9.88;;;;;;;;;;5008700;28;20031;-66
2021/09/15 09:50:59;;;;;;;14.63;8.82;;;;;;;;;;5008331;28;20022;-72
2021/09/15 09:53:26;;;;;;;15.63;9.68;;;;;;;;;;5020617;28;20042;-70
2021/09/15 09:55:54;;;;;;;17.00;9.30;;;;;;;;;;5028239;28;20357;-66
2021/09/15 09:58:24;;;;;;;14.93;9.57;;;;;;;;;;5027613;28;20053;-68
2021/09/15 10:00:54;;;;;;;14.68;9.15;;;;;;;;;;5028245;28;20026;-68
2021/09/15 10:03:20;;;;;;;13.60;8.02;;;;;;;;;;5027905;28;20029;-70
2021/09/15 10:05:47;;;;;;;10.23;7.72;;;;;;;;;;5027457;28;20030;-66
2021/09/15 10:08:13;;;;;;;12.38;8.07;;;;;;;;;;5027713;28;20037;-67
2021/09/15 10:10:42;;;;;;;11.95;7.15;;;;;;;;;;5027576;28;20030;-67
2021/09/15 10:13:11;;;;;;;9.32;6.70;;;;;;;;;;5025043;28;20030;-67
2021/09/15 10:15:44;;;;;;;9.73;6.53;;;;;;;;;;5004196;28;20069;-67
2021/09/15 10:18:15;;;;;;;12.23;6.90;;;;;;;;;;5010267;28;20044;-67
2021/09/15 10:20:45;;;;;;;11.75;6.70;;;;;;;;;;5020778;28;20022;-70
2021/09/15 10:23:30;;;;;;;9.68;6.20;;;;;;;;;;5021920;28;20052;-70
2021/09/15 10:25:56;;;;;;;10.80;6.27;;;;;;;;;;5007627;28;20029;-73
2021/09/15 10:28:23;;;;;;;8.50;6.05;;;;;;;;;;5001565;28;20249;-70
2021/09/15 10:30:53;;;;;;;9.95;5.80;;;;;;;;;;5014649;28;20022;-70
2021/09/15 10:33:37;;;;;;;8.68;6.22;;;;;;;;;;5021856;28;20026;-66
2021/09/15 10:36:23;;;;;;;12.60;5.70;;;;;;;;;;5024899;28;20109;-67
2021/09/15 10:38:52;;;;;;;8.75;5.28;;;;;;;;;;5026041;28;20038;-73
2021/09/15 10:41:45;;;;;;;7.65;5.93;;;;;;;;;;5026291;28;20029;-72
2021/09/15 10:44:12;;;;;;;7.13;5.38;;;;;;;;;;5005319;28;20101;-70
2021/09/15 10:46:39;;;;;;;7.63;5.30;;;;;;;;;;5006094;28;20034;-66
2021/09/15 10:49:23;;;;;;;8.60;4.93;;;;;;;;;;5006125;28;20041;-68
2021/09/15 10:52:10;;;;;;;6.45;4.32;;;;;;;;;;5007040;28;20046;-66
2021/09/15 10:54:49;;;;;;;4.57;3.95;;;;;;;;;;5006909;28;20120;-66
2021/09/15 10:57:19;;;;;;;5.32;4.03;;;;;;;;;;5006912;28;20049;-70
2021/09/15 10:59:58;;;;;;;5.47;3.95;;;;;;;;;;5005146;28;20068;-68
2021/09/15 11:02:24;;;;;;;6.57;4.72;;;;;;;;;;5007223;28;20025;-68
2021/09/15 11:04:50;;;;;;;6.50;4.30;;;;;;;;;;5006764;28;20065;-66
2021/09/15 11:07:35;;;;;;;6.45;4.43;;;;;;;;;;5005592;28;20137;-68
2021/09/15 11:10:01;;;;;;;6.13;3.88;;;;;;;;;;5006711;28;20027;-71
2021/09/15 11:12:46;;;;;;;5.10;3.67;;;;;;;;;;5005802;28;20053;-70
2021/09/15 11:15:28;;;;;;;4.32;3.70;;;;;;;;;;5006333;28;20058;-68
2021/09/15 11:17:54;;;;;;;4.28;3.40;;;;;;;;;;5006249;28;20030;-69
2021/09/15 11:20:30;;;;;;;4.97;3.72;;;;;;;;;;5004458;28;20026;-69
2021/09/15 11:22:56;;;;;;;4.85;3.58;;;;;;;;;;5004323;28;20362;-69
2021/09/15 11:25:23;;;;;;;6.00;3.30;;;;;;;;;;5005927;28;20520;-65
2021/09/15 11:28:08;;;;;;;4.70;3.58;;;;;;;;;;5005970;28;20030;-65
2021/09/15 11:30:36;;;;;;;4.10;3.70;;;;;;;;;;5005508;28;20037;-65
2021/09/15 11:33:02;;;;;;;5.65;3.20;;;;;;;;;;5007572;28;20049;-71
2021/09/15 11:35:28;;;;;;;9.18;3.78;;;;;;;;;;5022564;28;20440;-72
2021/09/15 11:37:54;;;;;;;4.70;3.25;;;;;;;;;;5022155;28;20029;-68
2021/09/15 11:40:27;;;;;;;3.72;3.17;;;;;;;;;;5021311;28;20025;-68
2021/09/15 11:42:53;;;;;;;4.75;3.70;;;;;;;;;;5019578;28;20037;-70
2021/09/15 11:45:20;;;;;;;4.50;3.20;;;;;;;;;;5019357;28;20037;-73
2021/09/15 11:47:54;;;;;;;4.50;2.95;;;;;;;;;;5001075;28;20022;-74
2021/09/15 11:50:21;;;;;;;3.72;3.17;;;;;;;;;;5000830;28;20140;-71
2021/09/15 11:52:56;;;;;;;5.32;3.08;;;;;;;;;;4998808;28;20026;-70
2021/09/15 11:55:23;;;;;;;;;;;;;;;;;;4999981;28;20037;-71
2021/09/15 11:57:49;;;;;;;3.45;2.75;;;;;;;;;;4999867;28;19937;-69
2021/09/15 12:00:16;;;;;;;5.10;3.00;;;;;;;;;;5003334;28;20110;-66
2021/09/15 12:02:43;;;;;;;4.30;2.75;;;;;;;;;;5003587;28;20066;-70
2021/09/15 12:05:09;;;;;;;3.95;3.10;;;;;;;;;;5003190;28;20026;-72
2021/09/15 12:07:36;;;;;;;4.25;3.47;;;;;;;;;;4999099;28;20019;-71
2021/09/15 12:10:06;;;;;;;5.35;3.90;;;;;;;;;;4998819;28;20101;-71
2021/09/15 12:12:32;;;;;;;3.60;2.90;;;;;;;;;;4998810;28;20019;-74
2021/09/15 12:14:58;;;;;;;4.40;3.13;;;;;;;;;;4998683;28;20022;-72
2021/09/15 12:17:25;;;;;;;4.40;3.10;;;;;;;;;;4999132;28;20122;-72
2021/09/15 12:19:55;;;;;;;3.40;2.53;;;;;;;;;;4998978;28;20485;-73
2021/09/15 12:22:22;;;;;;;4.78;2.90;;;;;;;;;;4998509;28;20023;-72
2021/09/15 12:24:58;;;;;;;4.03;2.60;;;;;;;;;;4999526;28;20018;-73
2021/09/15 12:27:24;;;;;;;5.78;4.40;;;;;;;;;;4998243;28;20097;-72
2021/09/15 12:29:57;;;;;;;6.30;4.75;;;;;;;;;;4999591;28;20078;-70
2021/09/15 12:32:33;;;;;;;7.20;5.07;;;;;;;;;;4998072;28;20027;-69
2021/09/15 12:34:59;;;;;;;5.35;3.85;;;;;;;;;;4997849;28;20403;-72
2021/09/15 12:37:25;;;;;;;5.57;3.60;;;;;;;;;;4997748;28;20061;-71
2021/09/15 12:39:55;;;;;;;4.60;3.80;;;;;;;;;;4998010;28;20038;-71
2021/09/15 12:42:25;;;;;;;7.25;4.40;;;;;;;;;;4997848;28;20025;-73
2021/09/15 12:44:58;;;;;;;9.88;5.30;;;;;;;;;;4997249;28;20134;-72
2021/09/15 12:47:32;;;;;;;8.40;6.28;;;;;;;;;;4997559;28;20121;-72
2021/09/15 12:50:03;;;;;;;9.65;7.63;;;;;;;;;;5002355;28;20030;-66
2021/09/15 12:52:29;;;;;;;6.93;5.68;;;;;;;;;;5004849;28;20032;-71
2021/09/15 12:54:57;;;;;;;8.20;5.07;;;;;;;;;;5005836;28;20030;-75
2021/09/15 12:57:30;;;;;;;7.88;5.35;;;;;;;;;;5009147;28;20046;-69
2021/09/15 13:00:16;;;;;;;9.93;7.63;;;;;;;;;;5008849;28;20034;-72
2021/09/15 13:03:05;;;;;;;10.52;7.60;;;;;;;;;;5008347;28;20385;-71
2021/09/15 13:05:32;;;;;;;10.38;7.63;;;;;;;;;;5003185;28;20038;-70
2021/09/15 13:07:59;;;;;;;11.88;7.90;;;;;;;;;;5009017;28;20026;-69
2021/09/15 13:10:25;;;;;;;9.88;6.82;;;;;;;;;;5007618;28;20050;-65
2021/09/15 13:12:52;;;;;;;9.10;6.32;;;;;;;;;;5005082;28;20033;-70
2021/09/15 13:15:18;;;;;;;9.25;6.32;;;;;;;;;;5006445;28;20026;-71
2021/09/15 13:17:44;;;;;;;6.95;5.68;;;;;;;;;;5007736;28;20033;-70
2021/09/15 13:20:13;;;;;;;10.27;6.85;;;;;;;;;;5007946;28;20022;-68
2021/09/15 13:22:39;;;;;;;9.07;5.93;;;;;;;;;;5008695;28;20102;-71
2021/09/15 13:25:05;;;;;;;7.30;5.80;;;;;;;;;;5007476;28;20030;-68
2021/09/15 13:27:34;;;;;;;6.53;5.30;;;;;;;;;;5008852;28;20034;-68
2021/09/15 13:30:00;;;;;;;7.55;5.95;;;;;;;;;;5008463;28;20030;-69
2021/09/15 13:32:27;;;;;;;8.48;5.78;;;;;;;;;;5008943;28;20033;-67
2021/09/15 13:34:53;;;;;;;6.43;4.78;;;;;;;;;;5008501;28;20030;-71
2021/09/15 13:37:19;;;;;;;8.02;5.40;;;;;;;;;;5008480;28;20668;-68
2021/09/15 13:39:45;;;;;;;7.40;4.75;;;;;;;;;;5008792;28;20435;-67
2021/09/15 13:42:11;;;;;;;6.05;4.80;;;;;;;;;;5008480;28;20026;-71
2021/09/15 13:44:37;;;;;;;5.38;4.25;;;;;;;;;;5008708;28;20112;-72
2021/09/15 13:47:03;;;;;;;4.80;4.25;;;;;;;;;;5007481;28;20080;-75
2021/09/15 13:49:39;;;;;;;6.80;4.60;;;;;;;;;;5005602;28;20035;-67
2021/09/15 13:52:05;;;;;;;6.18;4.38;;;;;;;;;;5005945;28;20058;-67
2021/09/15 13:54:31;;;;;;;4.97;4.32;;;;;;;;;;5007269;28;20026;-70
2021/09/15 13:56:57;;;;;;;5.25;4.25;;;;;;;;;;5002981;28;20026;-74
2021/09/15 13:59:23;;;;;;;4.93;4.05;;;;;;;;;;4999764;28;20050;-75
2021/09/15 14:01:50;;;;;;;4.07;3.67;;;;;;;;;;4999722;28;20018;-71
2021/09/15 14:04:17;;;;;;;5.60;4.10;;;;;;;;;;5000310;28;20030;-71
2021/09/15 14:06:43;;;;;;;4.75;4.28;;;;;;;;;;4999755;28;20053;-72
2021/09/15 14:09:09;;;;;;;4.25;3.20;;;;;;;;;;4998834;28;20045;-70
2021/09/15 14:11:35;;;;;;;3.03;2.72;;;;;;;;;;4999499;28;20034;-71
2021/09/15 14:14:03;;;;;;;4.05;3.35;;;;;;;;;;5001837;28;20026;-69
2021/09/15 14:16:32;;;;;;;3.72;3.05;;;;;;;;;;5004241;28;20026;-69
2021/09/15 14:18:58;;;;;;;4.78;3.90;;;;;;;;;;5003776;28;20472;-70
2021/09/15 14:21:24;;;;;;;4.60;4.20;;;;;;;;;;5004176;28;20498;-73
2021/09/15 14:23:50;;;;;;;6.15;4.55;;;;;;;;;;5004475;28;20049;-69
2021/09/15 14:26:16;;;;;;;5.45;4.80;;;;;;;;;;5006597;28;20030;-69
2021/09/15 14:28:42;;;;;;;7.18;4.88;;;;;;;;;;5002667;28;20031;-74
2021/09/15 14:31:08;;;;;;;5.28;4.70;;;;;;;;;;4999558;28;20085;-69
2021/09/15 14:33:34;;;;;;;5.65;4.20;;;;;;;;;;5002084;28;20109;-69
2021/09/15 14:36:01;;;;;;;4.47;3.90;;;;;;;;;;5020497;28;20026;-72